sensor_id;sensor_type;location;lat;lon;timestamp;P1;durP1;ratioP1;P2;durP2;ratioP2
8550;SDS011;4313;42.000;21.380;2024-01-30T00:00:32;46.50;;;30.27;;
8550;SDS011;4313;42.000;21.380;2024-01-30T00:02:59;42.00;;;31.17;;
8550;SDS011;4313;42.000;21.380;2024-01-30T00:05:26;29.07;;;22.03;;
8550;SDS011;4313;42.000;21.380;2024-01-30T00:07:53;22.63;;;15.87;;
8550;SDS011;4313;42.000;21.380;2024-01-30T00:10:21;18.43;;;14.40;;
8550;SDS011;4313;42.000;21.380;2024-01-30T00:12:48;20.70;;;14.73;;
8550;SDS011;4313;42.000;21.380;2024-01-30T00:15:16;21.33;;;15.10;;
8550;SDS011;4313;42.000;21.380;2024-01-30T00:17:43;20.03;;;13.77;;
8550;SDS011;4313;42.000;21.380;2024-01-30T00:20:10;16.60;;;13.27;;
8550;SDS011;4313;42.000;21.380;2024-01-30T00:22:38;22.03;;;15.07;;
8550;SDS011;4313;42.000;21.380;2024-01-30T00:25:05;24.87;;;17.77;;
8550;SDS011;4313;42.000;21.380;2024-01-30T00:27:34;22.20;;;15.40;;
8550;SDS011;4313;42.000;21.380;2024-01-30T00:30:01;15.17;;;11.13;;
8550;SDS011;4313;42.000;21.380;2024-01-30T00:32:28;16.33;;;11.27;;
8550;SDS011;4313;42.000;21.380;2024-01-30T00:34:55;18.00;;;12.07;;
8550;SDS011;4313;42.000;21.380;2024-01-30T00:37:22;13.90;;;10.10;;
8550;SDS011;4313;42.000;21.380;2024-01-30T00:39:49;15.07;;;10.10;;
8550;SDS011;4313;42.000;21.380;2024-01-30T00:42:16;12.37;;;8.90;;
8550;SDS011;4313;42.000;21.380;2024-01-30T00:44:46;16.03;;;9.10;;
8550;SDS011;4313;42.000;21.380;2024-01-30T00:47:13;12.77;;;9.07;;
8550;SDS011;4313;42.000;21.380;2024-01-30T00:49:40;12.37;;;8.83;;
8550;SDS011;4313;42.000;21.380;2024-01-30T00:52:07;11.40;;;8.77;;
8550;SDS011;4313;42.000;21.380;2024-01-30T00:54:34;11.43;;;8.60;;
8550;SDS011;4313;42.000;21.380;2024-01-30T00:57:01;13.27;;;9.57;;
8550;SDS011;4313;42.000;21.380;2024-01-30T00:59:28;13.23;;;9.77;;
8550;SDS011;4313;42.000;21.380;2024-01-30T01:01:57;17.03;;;10.80;;
8550;SDS011;4313;42.000;21.380;2024-01-30T01:04:24;12.67;;;9.50;;
8550;SDS011;4313;42.000;21.380;2024-01-30T01:06:52;13.07;;;10.20;;
8550;SDS011;4313;42.000;21.380;2024-01-30T01:09:19;14.50;;;10.43;;
8550;SDS011;4313;42.000;21.380;2024-01-30T01:11:46;13.63;;;9.67;;
8550;SDS011;4313;42.000;21.380;2024-01-30T01:14:14;14.93;;;10.60;;
8550;SDS011;4313;42.000;21.380;2024-01-30T01:16:41;15.40;;;11.70;;
8550;SDS011;4313;42.000;21.380;2024-01-30T01:19:10;16.77;;;10.50;;
8550;SDS011;4313;42.000;21.380;2024-01-30T01:21:37;13.80;;;10.10;;
8550;SDS011;4313;42.000;21.380;2024-01-30T01:24:04;14.80;;;10.97;;
8550;SDS011;4313;42.000;21.380;2024-01-30T01:26:31;18.77;;;10.87;;
8550;SDS011;4313;42.000;21.380;2024-01-30T01:29:01;16.23;;;11.53;;
8550;SDS011;4313;42.000;21.380;2024-01-30T01:31:35;15.83;;;9.73;;
8550;SDS011;4313;42.000;21.380;2024-01-30T01:34:05;16.27;;;9.93;;
8550;SDS011;4313;42.000;21.380;2024-01-30T01:36:35;16.77;;;10.80;;
8550;SDS011;4313;42.000;21.380;2024-01-30T01:39:02;16.67;;;10.43;;
8550;SDS011;4313;42.000;21.380;2024-01-30T01:41:29;16.17;;;10.50;;
8550;SDS011;4313;42.000;21.380;2024-01-30T01:43:57;17.37;;;12.40;;
8550;SDS011;4313;42.000;21.380;2024-01-30T01:46:27;15.20;;;10.17;;
8550;SDS011;4313;42.000;21.380;2024-01-30T01:48:54;13.90;;;10.20;;
8550;SDS011;4313;42.000;21.380;2024-01-30T01:51:21;18.63;;;12.47;;
8550;SDS011;4313;42.000;21.380;2024-01-30T01:53:50;18.20;;;12.37;;
8550;SDS011;4313;42.000;21.380;2024-01-30T01:56:17;16.03;;;11.77;;
8550;SDS011;4313;42.000;21.380;2024-01-30T01:58:44;18.67;;;12.90;;
8550;SDS011;4313;42.000;21.380;2024-01-30T02:01:12;15.37;;;10.50;;
8550;SDS011;4313;42.000;21.380;2024-01-30T02:03:40;14.80;;;10.40;;
8550;SDS011;4313;42.000;21.380;2024-01-30T02:06:08;13.63;;;10.33;;
8550;SDS011;4313;42.000;21.380;2024-01-30T02:08:38;15.67;;;11.53;;
8550;SDS011;4313;42.000;21.380;2024-01-30T02:11:07;16.40;;;11.33;;
8550;SDS011;4313;42.000;21.380;2024-01-30T02:13:35;17.87;;;12.60;;
8550;SDS011;4313;42.000;21.380;2024-01-30T02:16:05;17.70;;;12.20;;
8550;SDS011;4313;42.000;21.380;2024-01-30T02:18:32;14.50;;;10.40;;
8550;SDS011;4313;42.000;21.380;2024-01-30T02:21:04;13.80;;;8.90;;
8550;SDS011;4313;42.000;21.380;2024-01-30T02:23:32;15.73;;;10.33;;
8550;SDS011;4313;42.000;21.380;2024-01-30T02:26:00;17.97;;;10.90;;
8550;SDS011;4313;42.000;21.380;2024-01-30T02:28:29;15.93;;;10.73;;
8550;SDS011;4313;42.000;21.380;2024-01-30T02:30:56;15.77;;;10.53;;
8550;SDS011;4313;42.000;21.380;2024-01-30T02:33:25;15.43;;;10.60;;
8550;SDS011;4313;42.000;21.380;2024-01-30T02:35:52;19.13;;;12.33;;
8550;SDS011;4313;42.000;21.380;2024-01-30T02:38:21;19.83;;;12.83;;
8550;SDS011;4313;42.000;21.380;2024-01-30T02:40:48;30.17;;;19.73;;
8550;SDS011;4313;42.000;21.380;2024-01-30T02:43:16;66.73;;;35.77;;
8550;SDS011;4313;42.000;21.380;2024-01-30T02:45:43;48.83;;;28.20;;
8550;SDS011;4313;42.000;21.380;2024-01-30T02:48:10;27.90;;;17.97;;
8550;SDS011;4313;42.000;21.380;2024-01-30T02:50:37;17.07;;;10.53;;
8550;SDS011;4313;42.000;21.380;2024-01-30T02:53:05;15.93;;;10.60;;
8550;SDS011;4313;42.000;21.380;2024-01-30T02:55:33;18.17;;;12.57;;
8550;SDS011;4313;42.000;21.380;2024-01-30T02:58:00;20.47;;;12.97;;
8550;SDS011;4313;42.000;21.380;2024-01-30T03:00:27;19.53;;;13.20;;
8550;SDS011;4313;42.000;21.380;2024-01-30T03:02:54;18.93;;;13.73;;
8550;SDS011;4313;42.000;21.380;2024-01-30T03:05:21;16.17;;;11.23;;
8550;SDS011;4313;42.000;21.380;2024-01-30T03:07:48;13.77;;;10.23;;
8550;SDS011;4313;42.000;21.380;2024-01-30T03:10:36;15.50;;;10.10;;
8550;SDS011;4313;42.000;21.380;2024-01-30T03:13:03;11.17;;;8.17;;
8550;SDS011;4313;42.000;21.380;2024-01-30T03:15:30;14.47;;;9.33;;
8550;SDS011;4313;42.000;21.380;2024-01-30T03:17:57;13.47;;;9.20;;
8550;SDS011;4313;42.000;21.380;2024-01-30T03:20:25;15.10;;;9.23;;
8550;SDS011;4313;42.000;21.380;2024-01-30T03:22:53;11.67;;;7.90;;
8550;SDS011;4313;42.000;21.380;2024-01-30T03:25:21;10.23;;;7.87;;
8550;SDS011;4313;42.000;21.380;2024-01-30T03:27:50;11.20;;;8.40;;
8550;SDS011;4313;42.000;21.380;2024-01-30T03:30:17;12.83;;;9.77;;
8550;SDS011;4313;42.000;21.380;2024-01-30T03:32:44;13.63;;;8.90;;
8550;SDS011;4313;42.000;21.380;2024-01-30T03:35:11;14.60;;;10.43;;
8550;SDS011;4313;42.000;21.380;2024-01-30T03:37:41;16.67;;;11.20;;
8550;SDS011;4313;42.000;21.380;2024-01-30T03:40:08;15.23;;;11.33;;
8550;SDS011;4313;42.000;21.380;2024-01-30T03:42:36;17.13;;;11.93;;
8550;SDS011;4313;42.000;21.380;2024-01-30T03:45:07;17.80;;;12.17;;
8550;SDS011;4313;42.000;21.380;2024-01-30T03:47:34;15.80;;;11.10;;
8550;SDS011;4313;42.000;21.380;2024-01-30T03:50:01;15.50;;;10.93;;
8550;SDS011;4313;42.000;21.380;2024-01-30T03:52:30;17.47;;;11.90;;
8550;SDS011;4313;42.000;21.380;2024-01-30T03:54:57;16.03;;;11.10;;
8550;SDS011;4313;42.000;21.380;2024-01-30T03:57:24;15.53;;;10.93;;
8550;SDS011;4313;42.000;21.380;2024-01-30T03:59:53;13.83;;;10.30;;
8550;SDS011;4313;42.000;21.380;2024-01-30T04:02:21;16.27;;;12.07;;
8550;SDS011;4313;42.000;21.380;2024-01-30T04:04:48;16.03;;;10.23;;
8550;SDS011;4313;42.000;21.380;2024-01-30T04:07:15;19.67;;;12.17;;
8550;SDS011;4313;42.000;21.380;2024-01-30T04:09:43;22.17;;;13.57;;
8550;SDS011;4313;42.000;21.380;2024-01-30T04:12:10;22.17;;;13.40;;
8550;SDS011;4313;42.000;21.380;2024-01-30T04:14:38;18.43;;;12.00;;
8550;SDS011;4313;42.000;21.380;2024-01-30T04:17:05;24.53;;;13.87;;
8550;SDS011;4313;42.000;21.380;2024-01-30T04:19:36;40.67;;;20.67;;
8550;SDS011;4313;42.000;21.380;2024-01-30T04:22:03;35.00;;;17.63;;
8550;SDS011;4313;42.000;21.380;2024-01-30T04:24:31;33.07;;;16.27;;
8550;SDS011;4313;42.000;21.380;2024-01-30T04:26:58;53.30;;;24.57;;
8550;SDS011;4313;42.000;21.380;2024-01-30T04:29:25;43.03;;;22.17;;
8550;SDS011;4313;42.000;21.380;2024-01-30T04:31:52;22.50;;;15.57;;
8550;SDS011;4313;42.000;21.380;2024-01-30T04:34:19;28.00;;;18.00;;
8550;SDS011;4313;42.000;21.380;2024-01-30T04:36:48;29.60;;;19.07;;
8550;SDS011;4313;42.000;21.380;2024-01-30T04:39:15;24.27;;;16.73;;
8550;SDS011;4313;42.000;21.380;2024-01-30T04:41:42;27.73;;;17.77;;
8550;SDS011;4313;42.000;21.380;2024-01-30T04:44:09;23.27;;;15.70;;
8550;SDS011;4313;42.000;21.380;2024-01-30T04:46:36;24.63;;;17.20;;
8550;SDS011;4313;42.000;21.380;2024-01-30T04:49:03;24.17;;;15.00;;
8550;SDS011;4313;42.000;21.380;2024-01-30T04:51:30;20.37;;;14.87;;
8550;SDS011;4313;42.000;21.380;2024-01-30T04:53:59;22.87;;;13.60;;
8550;SDS011;4313;42.000;21.380;2024-01-30T04:56:26;18.37;;;14.30;;
8550;SDS011;4313;42.000;21.380;2024-01-30T04:58:53;22.97;;;15.53;;
8550;SDS011;4313;42.000;21.380;2024-01-30T05:01:20;20.03;;;14.27;;
8550;SDS011;4313;42.000;21.380;2024-01-30T05:03:47;17.67;;;13.53;;
8550;SDS011;4313;42.000;21.380;2024-01-30T05:06:23;18.13;;;12.00;;
8550;SDS011;4313;42.000;21.380;2024-01-30T05:08:50;20.33;;;13.37;;
8550;SDS011;4313;42.000;21.380;2024-01-30T05:11:19;17.93;;;13.93;;
8550;SDS011;4313;42.000;21.380;2024-01-30T05:13:46;17.90;;;13.57;;
8550;SDS011;4313;42.000;21.380;2024-01-30T05:16:13;19.17;;;14.67;;
8550;SDS011;4313;42.000;21.380;2024-01-30T05:18:40;16.87;;;13.17;;
8550;SDS011;4313;42.000;21.380;2024-01-30T05:21:07;22.03;;;14.47;;
8550;SDS011;4313;42.000;21.380;2024-01-30T05:23:34;27.40;;;18.87;;
8550;SDS011;4313;42.000;21.380;2024-01-30T05:26:01;28.73;;;19.20;;
8550;SDS011;4313;42.000;21.380;2024-01-30T05:28:30;27.77;;;19.80;;
8550;SDS011;4313;42.000;21.380;2024-01-30T05:30:57;29.73;;;21.03;;
8550;SDS011;4313;42.000;21.380;2024-01-30T05:33:24;28.60;;;20.80;;
8550;SDS011;4313;42.000;21.380;2024-01-30T05:35:51;31.03;;;21.37;;
8550;SDS011;4313;42.000;21.380;2024-01-30T05:38:19;30.97;;;22.20;;
8550;SDS011;4313;42.000;21.380;2024-01-30T05:40:47;29.83;;;21.03;;
8550;SDS011;4313;42.000;21.380;2024-01-30T05:43:15;29.50;;;21.83;;
8550;SDS011;4313;42.000;21.380;2024-01-30T05:45:44;29.33;;;20.20;;
8550;SDS011;4313;42.000;21.380;2024-01-30T05:48:11;29.77;;;21.80;;
8550;SDS011;4313;42.000;21.380;2024-01-30T05:50:38;32.83;;;22.33;;
8550;SDS011;4313;42.000;21.380;2024-01-30T05:53:06;33.63;;;21.33;;
8550;SDS011;4313;42.000;21.380;2024-01-30T05:55:33;34.03;;;21.67;;
8550;SDS011;4313;42.000;21.380;2024-01-30T05:58:00;31.43;;;22.30;;
8550;SDS011;4313;42.000;21.380;2024-01-30T06:00:27;32.07;;;23.13;;
8550;SDS011;4313;42.000;21.380;2024-01-30T06:02:55;31.97;;;23.67;;
8550;SDS011;4313;42.000;21.380;2024-01-30T06:05:22;31.57;;;22.20;;
8550;SDS011;4313;42.000;21.380;2024-01-30T06:07:49;26.47;;;19.93;;
8550;SDS011;4313;42.000;21.380;2024-01-30T06:10:16;33.00;;;23.33;;
8550;SDS011;4313;42.000;21.380;2024-01-30T06:12:44;29.80;;;20.73;;
8550;SDS011;4313;42.000;21.380;2024-01-30T06:15:11;62.47;;;30.83;;
8550;SDS011;4313;42.000;21.380;2024-01-30T06:17:41;125.10;;;51.27;;
8550;SDS011;4313;42.000;21.380;2024-01-30T06:20:09;45.37;;;24.60;;
8550;SDS011;4313;42.000;21.380;2024-01-30T06:22:36;29.90;;;19.67;;
8550;SDS011;4313;42.000;21.380;2024-01-30T06:25:04;276.20;;;115.40;;
8550;SDS011;4313;42.000;21.380;2024-01-30T06:27:31;248.67;;;109.40;;
8550;SDS011;4313;42.000;21.380;2024-01-30T06:29:58;57.97;;;30.60;;
8550;SDS011;4313;42.000;21.380;2024-01-30T06:32:25;45.73;;;28.67;;
8550;SDS011;4313;42.000;21.380;2024-01-30T06:34:52;59.40;;;33.20;;
8550;SDS011;4313;42.000;21.380;2024-01-30T06:37:40;46.53;;;28.40;;
8550;SDS011;4313;42.000;21.380;2024-01-30T06:40:07;44.77;;;28.53;;
8550;SDS011;4313;42.000;21.380;2024-01-30T06:42:35;44.17;;;26.87;;
8550;SDS011;4313;42.000;21.380;2024-01-30T06:45:02;37.60;;;25.87;;
8550;SDS011;4313;42.000;21.380;2024-01-30T06:47:29;37.90;;;25.23;;
8550;SDS011;4313;42.000;21.380;2024-01-30T06:49:57;40.47;;;25.70;;
8550;SDS011;4313;42.000;21.380;2024-01-30T06:52:24;40.10;;;26.67;;
8550;SDS011;4313;42.000;21.380;2024-01-30T06:54:53;37.97;;;24.13;;
8550;SDS011;4313;42.000;21.380;2024-01-30T06:57:21;35.20;;;24.93;;
8550;SDS011;4313;42.000;21.380;2024-01-30T06:59:48;33.77;;;23.97;;
8550;SDS011;4313;42.000;21.380;2024-01-30T07:02:21;33.23;;;24.13;;
8550;SDS011;4313;42.000;21.380;2024-01-30T07:04:48;37.78;;;25.27;;
8550;SDS011;4313;42.000;21.380;2024-01-30T07:07:15;30.73;;;23.40;;
8550;SDS011;4313;42.000;21.380;2024-01-30T07:09:43;31.00;;;22.95;;
8550;SDS011;4313;42.000;21.380;2024-01-30T07:12:11;30.48;;;22.88;;
8550;SDS011;4313;42.000;21.380;2024-01-30T07:14:41;26.67;;;21.67;;
8550;SDS011;4313;42.000;21.380;2024-01-30T07:17:08;30.80;;;22.58;;
8550;SDS011;4313;42.000;21.380;2024-01-30T07:19:35;28.70;;;21.00;;
8550;SDS011;4313;42.000;21.380;2024-01-30T07:22:02;28.95;;;22.55;;
8550;SDS011;4313;42.000;21.380;2024-01-30T07:24:29;30.65;;;23.42;;
8550;SDS011;4313;42.000;21.380;2024-01-30T07:26:56;36.60;;;28.30;;
8550;SDS011;4313;42.000;21.380;2024-01-30T07:29:25;34.65;;;27.17;;
8550;SDS011;4313;42.000;21.380;2024-01-30T07:31:52;37.65;;;29.70;;
8550;SDS011;4313;42.000;21.380;2024-01-30T07:34:19;32.65;;;24.80;;
8550;SDS011;4313;42.000;21.380;2024-01-30T07:36:46;25.80;;;20.85;;
8550;SDS011;4313;42.000;21.380;2024-01-30T07:39:15;24.63;;;19.77;;
8550;SDS011;4313;42.000;21.380;2024-01-30T07:41:42;20.30;;;17.88;;
8550;SDS011;4313;42.000;21.380;2024-01-30T07:44:09;22.38;;;17.42;;
8550;SDS011;4313;42.000;21.380;2024-01-30T07:46:37;17.52;;;14.70;;
8550;SDS011;4313;42.000;21.380;2024-01-30T07:49:04;18.80;;;14.90;;
8550;SDS011;4313;42.000;21.380;2024-01-30T07:51:31;14.15;;;12.25;;
8550;SDS011;4313;42.000;21.380;2024-01-30T07:53:58;13.05;;;11.43;;
8550;SDS011;4313;42.000;21.380;2024-01-30T07:56:25;14.20;;;12.57;;
8550;SDS011;4313;42.000;21.380;2024-01-30T07:58:53;13.93;;;12.00;;
8550;SDS011;4313;42.000;21.380;2024-01-30T08:01:20;14.55;;;10.45;;
8550;SDS011;4313;42.000;21.380;2024-01-30T08:03:48;10.15;;;9.02;;
8550;SDS011;4313;42.000;21.380;2024-01-30T08:06:15;9.93;;;8.77;;
8550;SDS011;4313;42.000;21.380;2024-01-30T08:08:42;9.50;;;8.60;;
8550;SDS011;4313;42.000;21.380;2024-01-30T08:11:09;7.43;;;6.60;;
8550;SDS011;4313;42.000;21.380;2024-01-30T08:13:36;7.57;;;5.95;;
8550;SDS011;4313;42.000;21.380;2024-01-30T08:16:03;7.15;;;6.20;;
8550;SDS011;4313;42.000;21.380;2024-01-30T08:18:31;7.38;;;6.63;;
8550;SDS011;4313;42.000;21.380;2024-01-30T08:21:00;7.18;;;5.25;;
8550;SDS011;4313;42.000;21.380;2024-01-30T08:23:27;6.05;;;5.45;;
8550;SDS011;4313;42.000;21.380;2024-01-30T08:25:54;6.10;;;5.53;;
8550;SDS011;4313;42.000;21.380;2024-01-30T08:28:21;6.65;;;5.72;;
8550;SDS011;4313;42.000;21.380;2024-01-30T08:30:48;7.47;;;6.25;;
8550;SDS011;4313;42.000;21.380;2024-01-30T08:33:15;5.75;;;5.15;;
8550;SDS011;4313;42.000;21.380;2024-01-30T08:35:42;7.00;;;6.13;;
8550;SDS011;4313;42.000;21.380;2024-01-30T08:38:10;7.22;;;5.97;;
8550;SDS011;4313;42.000;21.380;2024-01-30T08:40:38;7.47;;;6.20;;
8550;SDS011;4313;42.000;21.380;2024-01-30T08:43:04;8.70;;;6.60;;
8550;SDS011;4313;42.000;21.380;2024-01-30T08:45:31;17.92;;;15.45;;
8550;SDS011;4313;42.000;21.380;2024-01-30T08:47:58;9.52;;;8.10;;
8550;SDS011;4313;42.000;21.380;2024-01-30T08:50:25;9.57;;;7.88;;
8550;SDS011;4313;42.000;21.380;2024-01-30T08:52:52;7.75;;;6.35;;
8550;SDS011;4313;42.000;21.380;2024-01-30T08:55:21;7.25;;;6.35;;
8550;SDS011;4313;42.000;21.380;2024-01-30T08:57:48;7.65;;;6.38;;
8550;SDS011;4313;42.000;21.380;2024-01-30T09:00:15;9.18;;;6.72;;
8550;SDS011;4313;42.000;21.380;2024-01-30T09:02:43;8.75;;;7.63;;
8550;SDS011;4313;42.000;21.380;2024-01-30T09:05:10;8.48;;;7.63;;
8550;SDS011;4313;42.000;21.380;2024-01-30T09:07:37;7.35;;;6.53;;
8550;SDS011;4313;42.000;21.380;2024-01-30T09:10:05;6.85;;;5.90;;
8550;SDS011;4313;42.000;21.380;2024-01-30T09:12:53;7.43;;;6.45;;
8550;SDS011;4313;42.000;21.380;2024-01-30T09:15:20;13.45;;;10.48;;
8550;SDS011;4313;42.000;21.380;2024-01-30T09:17:47;7.20;;;6.47;;
8550;SDS011;4313;42.000;21.380;2024-01-30T09:20:17;7.85;;;7.05;;
8550;SDS011;4313;42.000;21.380;2024-01-30T09:22:45;6.93;;;5.88;;
8550;SDS011;4313;42.000;21.380;2024-01-30T09:25:12;10.88;;;9.10;;
8550;SDS011;4313;42.000;21.380;2024-01-30T09:27:39;7.88;;;6.85;;
8550;SDS011;4313;42.000;21.380;2024-01-30T09:30:08;8.90;;;8.00;;
8550;SDS011;4313;42.000;21.380;2024-01-30T09:32:36;7.82;;;7.03;;
8550;SDS011;4313;42.000;21.380;2024-01-30T09:35:03;13.00;;;11.38;;
8550;SDS011;4313;42.000;21.380;2024-01-30T09:37:32;15.43;;;13.85;;
8550;SDS011;4313;42.000;21.380;2024-01-30T09:39:59;6.63;;;5.90;;
8550;SDS011;4313;42.000;21.380;2024-01-30T09:42:27;6.28;;;5.68;;
8550;SDS011;4313;42.000;21.380;2024-01-30T09:45:01;8.70;;;6.15;;
8550;SDS011;4313;42.000;21.380;2024-01-30T09:47:31;6.80;;;6.13;;
8550;SDS011;4313;42.000;21.380;2024-01-30T09:49:59;7.28;;;6.15;;
8550;SDS011;4313;42.000;21.380;2024-01-30T09:52:28;7.82;;;7.03;;
8550;SDS011;4313;42.000;21.380;2024-01-30T09:54:55;7.45;;;6.65;;
8550;SDS011;4313;42.000;21.380;2024-01-30T09:57:22;12.45;;;9.75;;
8550;SDS011;4313;42.000;21.380;2024-01-30T09:59:51;18.45;;;12.48;;
8550;SDS011;4313;42.000;21.380;2024-01-30T10:02:19;7.85;;;6.28;;
8550;SDS011;4313;42.000;21.380;2024-01-30T10:04:48;7.47;;;6.63;;
8550;SDS011;4313;42.000;21.380;2024-01-30T10:07:16;7.68;;;6.20;;
8550;SDS011;4313;42.000;21.380;2024-01-30T10:09:43;8.27;;;7.38;;
8550;SDS011;4313;42.000;21.380;2024-01-30T10:12:11;8.10;;;7.18;;
8550;SDS011;4313;42.000;21.380;2024-01-30T10:14:38;5.75;;;5.15;;
8550;SDS011;4313;42.000;21.380;2024-01-30T10:17:07;7.18;;;6.05;;
8550;SDS011;4313;42.000;21.380;2024-01-30T10:19:35;7.53;;;6.32;;
8550;SDS011;4313;42.000;21.380;2024-01-30T10:22:03;7.45;;;6.00;;
8550;SDS011;4313;42.000;21.380;2024-01-30T10:24:30;6.30;;;5.70;;
8550;SDS011;4313;42.000;21.380;2024-01-30T10:26:58;6.43;;;5.53;;
8550;SDS011;4313;42.000;21.380;2024-01-30T10:29:25;5.80;;;4.72;;
8550;SDS011;4313;42.000;21.380;2024-01-30T10:31:59;6.75;;;4.97;;
8550;SDS011;4313;42.000;21.380;2024-01-30T10:34:26;6.88;;;5.65;;
8550;SDS011;4313;42.000;21.380;2024-01-30T10:36:56;7.00;;;6.10;;
8550;SDS011;4313;42.000;21.380;2024-01-30T10:39:29;7.15;;;6.45;;
8550;SDS011;4313;42.000;21.380;2024-01-30T10:41:59;5.50;;;4.82;;
8550;SDS011;4313;42.000;21.380;2024-01-30T10:44:28;5.63;;;4.97;;
8550;SDS011;4313;42.000;21.380;2024-01-30T10:47:01;6.32;;;4.57;;
8550;SDS011;4313;42.000;21.380;2024-01-30T10:49:30;5.15;;;4.53;;
8550;SDS011;4313;42.000;21.380;2024-01-30T10:52:00;7.03;;;4.72;;
8550;SDS011;4313;42.000;21.380;2024-01-30T10:54:29;5.65;;;4.72;;
8550;SDS011;4313;42.000;21.380;2024-01-30T10:56:57;5.38;;;4.43;;
8550;SDS011;4313;42.000;21.380;2024-01-30T10:59:25;6.80;;;4.25;;
8550;SDS011;4313;42.000;21.380;2024-01-30T11:01:53;5.38;;;4.53;;
8550;SDS011;4313;42.000;21.380;2024-01-30T11:04:20;5.50;;;4.68;;
8550;SDS011;4313;42.000;21.380;2024-01-30T11:06:49;7.53;;;4.90;;
8550;SDS011;4313;42.000;21.380;2024-01-30T11:09:17;5.20;;;4.05;;
8550;SDS011;4313;42.000;21.380;2024-01-30T11:11:55;5.88;;;4.68;;
8550;SDS011;4313;42.000;21.380;2024-01-30T11:14:25;6.25;;;5.40;;
8550;SDS011;4313;42.000;21.380;2024-01-30T11:16:52;5.70;;;4.57;;
8550;SDS011;4313;42.000;21.380;2024-01-30T11:19:22;6.85;;;4.95;;
8550;SDS011;4313;42.000;21.380;2024-01-30T11:21:51;7.93;;;6.18;;
8550;SDS011;4313;42.000;21.380;2024-01-30T11:24:19;6.93;;;5.50;;
8550;SDS011;4313;42.000;21.380;2024-01-30T11:26:47;7.32;;;5.00;;
8550;SDS011;4313;42.000;21.380;2024-01-30T11:29:17;6.35;;;4.63;;
8550;SDS011;4313;42.000;21.380;2024-01-30T11:31:51;5.88;;;4.70;;
8550;SDS011;4313;42.000;21.380;2024-01-30T11:34:19;6.05;;;4.85;;
8550;SDS011;4313;42.000;21.380;2024-01-30T11:36:48;5.85;;;4.65;;
8550;SDS011;4313;42.000;21.380;2024-01-30T11:39:20;9.38;;;4.40;;
8550;SDS011;4313;42.000;21.380;2024-01-30T11:41:47;6.25;;;5.22;;
8550;SDS011;4313;42.000;21.380;2024-01-30T11:44:38;5.78;;;5.18;;
8550;SDS011;4313;42.000;21.380;2024-01-30T11:47:05;4.80;;;4.30;;
8550;SDS011;4313;42.000;21.380;2024-01-30T11:49:33;5.07;;;4.28;;
8550;SDS011;4313;42.000;21.380;2024-01-30T11:52:01;22.33;;;14.48;;
8550;SDS011;4313;42.000;21.380;2024-01-30T11:54:28;15.88;;;11.15;;
8550;SDS011;4313;42.000;21.380;2024-01-30T11:56:57;14.15;;;10.15;;
8550;SDS011;4313;42.000;21.380;2024-01-30T11:59:24;5.85;;;5.20;;
8550;SDS011;4313;42.000;21.380;2024-01-30T12:01:55;6.43;;;4.65;;
8550;SDS011;4313;42.000;21.380;2024-01-30T12:04:22;5.13;;;4.55;;
8550;SDS011;4313;42.000;21.380;2024-01-30T12:06:50;8.60;;;6.97;;
8550;SDS011;4313;42.000;21.380;2024-01-30T12:09:36;6.47;;;5.40;;
8550;SDS011;4313;42.000;21.380;2024-01-30T12:12:03;6.93;;;6.15;;
8550;SDS011;4313;42.000;21.380;2024-01-30T12:14:31;8.40;;;7.35;;
8550;SDS011;4313;42.000;21.380;2024-01-30T12:16:59;11.82;;;9.95;;
8550;SDS011;4313;42.000;21.380;2024-01-30T12:19:27;12.45;;;11.20;;
8550;SDS011;4313;42.000;21.380;2024-01-30T12:21:55;7.93;;;5.28;;
8550;SDS011;4313;42.000;21.380;2024-01-30T12:24:24;6.03;;;5.05;;
8550;SDS011;4313;42.000;21.380;2024-01-30T12:26:51;5.97;;;5.25;;
8550;SDS011;4313;42.000;21.380;2024-01-30T12:29:19;6.18;;;5.15;;
8550;SDS011;4313;42.000;21.380;2024-01-30T12:31:52;6.80;;;5.50;;
8550;SDS011;4313;42.000;21.380;2024-01-30T12:34:21;5.78;;;5.18;;
8550;SDS011;4313;42.000;21.380;2024-01-30T12:36:48;6.18;;;5.30;;
8550;SDS011;4313;42.000;21.380;2024-01-30T12:39:15;6.85;;;5.50;;
8550;SDS011;4313;42.000;21.380;2024-01-30T12:41:42;7.43;;;5.63;;
8550;SDS011;4313;42.000;21.380;2024-01-30T12:44:09;6.50;;;5.40;;
8550;SDS011;4313;42.000;21.380;2024-01-30T12:46:55;13.13;;;6.90;;
8550;SDS011;4313;42.000;21.380;2024-01-30T12:49:23;8.55;;;6.93;;
8550;SDS011;4313;42.000;21.380;2024-01-30T12:51:50;8.15;;;6.53;;
8550;SDS011;4313;42.000;21.380;2024-01-30T12:54:17;10.02;;;6.70;;
8550;SDS011;4313;42.000;21.380;2024-01-30T12:56:44;8.05;;;6.18;;
8550;SDS011;4313;42.000;21.380;2024-01-30T12:59:12;9.32;;;7.10;;
8550;SDS011;4313;42.000;21.380;2024-01-30T13:01:39;9.13;;;5.78;;
8550;SDS011;4313;42.000;21.380;2024-01-30T13:04:06;6.18;;;4.45;;
8550;SDS011;4313;42.000;21.380;2024-01-30T13:06:35;11.35;;;7.97;;
8550;SDS011;4313;42.000;21.380;2024-01-30T13:09:06;4.65;;;3.95;;
8550;SDS011;4313;42.000;21.380;2024-01-30T13:11:33;5.13;;;4.15;;
8550;SDS011;4313;42.000;21.380;2024-01-30T13:14:01;6.15;;;4.40;;
8550;SDS011;4313;42.000;21.380;2024-01-30T13:16:28;6.78;;;4.70;;
8550;SDS011;4313;42.000;21.380;2024-01-30T13:18:55;5.65;;;4.20;;
8550;SDS011;4313;42.000;21.380;2024-01-30T13:21:23;7.38;;;4.82;;
8550;SDS011;4313;42.000;21.380;2024-01-30T13:23:51;7.85;;;4.70;;
8550;SDS011;4313;42.000;21.380;2024-01-30T13:26:19;6.18;;;5.05;;
8550;SDS011;4313;42.000;21.380;2024-01-30T13:28:47;8.05;;;6.13;;
8550;SDS011;4313;42.000;21.380;2024-01-30T13:31:14;5.45;;;4.47;;
8550;SDS011;4313;42.000;21.380;2024-01-30T13:33:41;6.60;;;5.33;;
8550;SDS011;4313;42.000;21.380;2024-01-30T13:36:09;7.63;;;5.47;;
8550;SDS011;4313;42.000;21.380;2024-01-30T13:38:37;6.85;;;5.53;;
8550;SDS011;4313;42.000;21.380;2024-01-30T13:41:05;8.13;;;4.83;;
8550;SDS011;4313;42.000;21.380;2024-01-30T13:43:32;6.55;;;5.03;;
8550;SDS011;4313;42.000;21.380;2024-01-30T13:45:59;6.17;;;4.80;;
8550;SDS011;4313;42.000;21.380;2024-01-30T13:48:28;6.80;;;4.93;;
8550;SDS011;4313;42.000;21.380;2024-01-30T13:50:59;7.78;;;4.88;;
8550;SDS011;4313;42.000;21.380;2024-01-30T13:53:26;9.07;;;5.50;;
8550;SDS011;4313;42.000;21.380;2024-01-30T13:55:53;10.30;;;6.00;;
8550;SDS011;4313;42.000;21.380;2024-01-30T13:58:22;9.73;;;7.23;;
8550;SDS011;4313;42.000;21.380;2024-01-30T14:00:49;7.93;;;6.53;;
8550;SDS011;4313;42.000;21.380;2024-01-30T14:03:16;10.80;;;6.57;;
8550;SDS011;4313;42.000;21.380;2024-01-30T14:05:45;6.97;;;5.30;;
8550;SDS011;4313;42.000;21.380;2024-01-30T14:08:12;11.87;;;6.63;;
8550;SDS011;4313;42.000;21.380;2024-01-30T14:10:58;7.90;;;5.73;;
8550;SDS011;4313;42.000;21.380;2024-01-30T14:13:27;8.63;;;5.50;;
8550;SDS011;4313;42.000;21.380;2024-01-30T14:15:54;13.70;;;6.23;;
8550;SDS011;4313;42.000;21.380;2024-01-30T14:18:22;10.37;;;6.07;;
8550;SDS011;4313;42.000;21.380;2024-01-30T14:20:51;7.37;;;5.50;;
8550;SDS011;4313;42.000;21.380;2024-01-30T14:23:20;7.40;;;5.67;;
8550;SDS011;4313;42.000;21.380;2024-01-30T14:25:47;10.47;;;6.17;;
8550;SDS011;4313;42.000;21.380;2024-01-30T14:28:14;10.30;;;6.70;;
8550;SDS011;4313;42.000;21.380;2024-01-30T14:30:44;9.10;;;6.13;;
8550;SDS011;4313;42.000;21.380;2024-01-30T14:33:11;7.20;;;5.50;;
8550;SDS011;4313;42.000;21.380;2024-01-30T14:35:39;9.17;;;6.30;;
8550;SDS011;4313;42.000;21.380;2024-01-30T14:38:06;9.63;;;7.20;;
8550;SDS011;4313;42.000;21.380;2024-01-30T14:40:34;12.30;;;8.93;;
8550;SDS011;4313;42.000;21.380;2024-01-30T14:43:01;15.10;;;10.23;;
8550;SDS011;4313;42.000;21.380;2024-01-30T14:45:28;9.30;;;7.27;;
8550;SDS011;4313;42.000;21.380;2024-01-30T14:47:58;10.50;;;5.73;;
8550;SDS011;4313;42.000;21.380;2024-01-30T14:50:26;8.00;;;5.53;;